createdAt,value
2022-10-11T00:00:05.431Z,1005.24
2022-10-11T00:01:05.467Z,1005.27
2022-10-11T00:02:05.450Z,1005.32
2022-10-11T00:03:05.438Z,1005.35
2022-10-11T00:04:05.416Z,1005.40
2022-10-11T00:05:05.541Z,1005.38
2022-10-11T00:06:05.778Z,1005.38
2022-10-11T00:07:05.529Z,1005.40
2022-10-11T00:08:05.434Z,1005.38
2022-10-11T00:09:05.424Z,1005.45
2022-10-11T00:10:05.368Z,1005.46
2022-10-11T00:11:05.364Z,1005.43
2022-10-11T00:12:05.399Z,1005.49
2022-10-11T00:13:05.376Z,1005.46
2022-10-11T00:14:05.359Z,1005.44
2022-10-11T00:15:05.382Z,1005.52
2022-10-11T00:16:05.700Z,1005.51
2022-10-11T00:17:05.320Z,1005.55
2022-10-11T00:18:05.612Z,1005.53
2022-10-11T00:19:06.315Z,1005.50
2022-10-11T00:20:05.312Z,1005.53
2022-10-11T00:21:05.300Z,1005.61
2022-10-11T00:22:05.288Z,1005.59
2022-10-11T00:23:05.276Z,1005.63
2022-10-11T00:24:05.335Z,1005.61
2022-10-11T00:25:05.275Z,1005.69
2022-10-11T00:26:05.535Z,1005.65
2022-10-11T00:27:05.267Z,1005.60
2022-10-11T00:28:05.299Z,1005.64
2022-10-11T00:29:05.252Z,1005.62
2022-10-11T00:30:05.260Z,1005.64
2022-10-11T00:31:05.577Z,1005.63
2022-10-11T00:32:05.215Z,1005.71
2022-10-11T00:33:05.272Z,1005.66
2022-10-11T00:34:05.227Z,1005.67
2022-10-11T00:35:05.212Z,1005.65
2022-10-11T00:36:05.490Z,1005.74
2022-10-11T00:37:05.275Z,1005.69
2022-10-11T00:38:05.176Z,1005.70
2022-10-11T00:39:05.188Z,1005.75
2022-10-11T00:40:05.195Z,1005.73
2022-10-11T00:41:05.180Z,1005.71
2022-10-11T00:42:05.159Z,1005.73
2022-10-11T00:43:05.172Z,1005.66
2022-10-11T00:44:05.143Z,1005.74
2022-10-11T00:45:05.140Z,1005.77
2022-10-11T00:46:05.453Z,1005.77
2022-10-11T00:47:05.127Z,1005.78
2022-10-11T00:48:05.116Z,1005.81
2022-10-11T00:49:05.125Z,1005.78
2022-10-11T00:50:05.106Z,1005.79
2022-10-11T00:51:05.470Z,1005.81
2022-10-11T00:52:05.104Z,1005.85
2022-10-11T00:53:05.104Z,1005.83
2022-10-11T00:54:05.082Z,1005.90
2022-10-11T00:55:05.080Z,1005.88
2022-10-11T00:56:05.311Z,1005.84
2022-10-11T00:57:05.676Z,1005.83
2022-10-11T00:58:05.092Z,1005.82
2022-10-11T00:59:05.085Z,1005.79
2022-10-11T01:00:05.057Z,1005.86
2022-10-11T01:01:05.146Z,1005.82
2022-10-11T01:02:05.048Z,1005.84
2022-10-11T01:03:05.050Z,1005.81
2022-10-11T01:04:05.028Z,1005.84
2022-10-11T01:05:27.760Z,1005.86
2022-10-11T01:06:07.529Z,1005.85
2022-10-11T01:07:05.068Z,1005.88
2022-10-11T01:08:05.001Z,1005.88
2022-10-11T01:09:05.025Z,1005.92
2022-10-11T01:10:05.101Z,1005.96
2022-10-11T01:11:05.000Z,1005.96
2022-10-11T01:12:04.984Z,1005.95
2022-10-11T01:13:04.988Z,1005.98
2022-10-11T01:14:04.987Z,1006.03
2022-10-11T01:15:04.956Z,1006.00
2022-10-11T01:16:05.305Z,1006.00
2022-10-11T01:17:04.954Z,1006.05
2022-10-11T01:18:04.955Z,1005.98
2022-10-11T01:19:04.935Z,1006.07
2022-10-11T01:20:04.961Z,1006.01
2022-10-11T01:21:04.928Z,1005.99
2022-10-11T01:22:04.928Z,1005.95
2022-10-11T01:23:04.947Z,1005.95
2022-10-11T01:24:08.569Z,1005.97
2022-10-11T01:25:05.912Z,1005.98
2022-10-11T01:26:05.200Z,1005.98
2022-10-11T01:27:04.931Z,1006.02
2022-10-11T01:28:04.886Z,1006.00
2022-10-11T01:29:04.877Z,1005.98
2022-10-11T01:30:04.925Z,1006.03
2022-10-11T01:31:04.877Z,1006.01
2022-10-11T01:32:04.901Z,1006.00
2022-10-11T01:33:04.900Z,1005.99
2022-10-11T01:34:04.852Z,1006.00
2022-10-11T01:35:04.883Z,1005.99
2022-10-11T01:36:05.160Z,1005.98
2022-10-11T01:37:04.842Z,1006.01
2022-10-11T01:38:05.814Z,1006.02
2022-10-11T01:39:04.822Z,1006.02
2022-10-11T01:40:04.940Z,1006.00
2022-10-11T01:41:04.853Z,1006.05
2022-10-11T01:42:04.821Z,1006.03
2022-10-11T01:43:04.799Z,1006.05
2022-10-11T01:44:04.818Z,1006.10
2022-10-11T01:45:04.861Z,1006.05
2022-10-11T01:46:05.104Z,1006.09
2022-10-11T01:47:04.772Z,1006.09
2022-10-11T01:48:04.813Z,1006.07
2022-10-11T01:49:04.784Z,1006.10
2022-10-11T01:50:04.793Z,1006.13
2022-10-11T01:51:04.764Z,1006.10
2022-10-11T01:52:04.814Z,1006.07
2022-10-11T01:53:04.793Z,1006.11
2022-10-11T01:54:04.812Z,1006.09
2022-10-11T01:55:09.651Z,1006.11
2022-10-11T01:56:07.372Z,1006.06
2022-10-11T01:57:04.725Z,1006.15
2022-10-11T01:58:04.748Z,1006.18
2022-10-11T01:59:04.704Z,1006.15
2022-10-11T02:00:04.696Z,1006.16
2022-10-11T02:01:04.749Z,1006.15
2022-10-11T02:02:04.681Z,1006.14
2022-10-11T02:03:04.721Z,1006.10
2022-10-11T02:04:04.674Z,1006.18
2022-10-11T02:05:04.677Z,1006.20
2022-10-11T02:06:04.949Z,1006.20
2022-10-11T02:07:04.666Z,1006.20
2022-10-11T02:08:04.650Z,1006.21
2022-10-11T02:09:08.084Z,1006.28
2022-10-11T02:10:05.641Z,1006.30
2022-10-11T02:11:04.637Z,1006.32
2022-10-11T02:12:04.621Z,1006.33
2022-10-11T02:13:04.625Z,1006.27
2022-10-11T02:14:04.618Z,1006.35
2022-10-11T02:15:04.649Z,1006.33
2022-10-11T02:16:04.811Z,1006.36
2022-10-11T02:17:05.153Z,1006.41
2022-10-11T02:18:04.608Z,1006.32
2022-10-11T02:19:04.630Z,1006.33
2022-10-11T02:20:04.590Z,1006.40
2022-10-11T02:21:04.593Z,1006.37
2022-10-11T02:22:04.573Z,1006.33
2022-10-11T02:23:04.553Z,1006.38
2022-10-11T02:24:04.575Z,1006.33
2022-10-11T02:25:04.561Z,1006.36
2022-10-11T02:26:04.974Z,1006.37
2022-10-11T02:27:04.589Z,1006.35
2022-10-11T02:28:04.526Z,1006.37
2022-10-11T02:29:04.529Z,1006.38
2022-10-11T02:30:04.526Z,1006.28
2022-10-11T02:31:04.512Z,1006.38
2022-10-11T02:32:04.502Z,1006.35
2022-10-11T02:33:04.493Z,1006.39
2022-10-11T02:34:04.497Z,1006.32
2022-10-11T02:35:04.501Z,1006.40
2022-10-11T02:36:04.752Z,1006.42
2022-10-11T02:37:04.502Z,1006.42
2022-10-11T02:38:04.468Z,1006.46
2022-10-11T02:39:04.504Z,1006.43
2022-10-11T02:40:04.476Z,1006.46
2022-10-11T02:41:04.495Z,1006.45
2022-10-11T02:42:04.476Z,1006.47
2022-10-11T02:43:04.474Z,1006.48
2022-10-11T02:44:04.435Z,1006.47
2022-10-11T02:45:04.447Z,1006.47
2022-10-11T02:46:04.836Z,1006.48
2022-10-11T02:47:04.700Z,1006.42
2022-10-11T02:48:04.474Z,1006.41
2022-10-11T02:49:04.417Z,1006.44
2022-10-11T02:50:04.399Z,1006.42
2022-10-11T02:51:04.419Z,1006.46
2022-10-11T02:52:04.394Z,1006.47
2022-10-11T02:53:04.403Z,1006.45
2022-10-11T02:54:04.385Z,1006.48
2022-10-11T02:55:04.384Z,1006.56
2022-10-11T02:56:04.745Z,1006.53
2022-10-11T02:57:04.370Z,1006.52
2022-10-11T02:58:04.371Z,1006.61
2022-10-11T02:59:04.377Z,1006.57
2022-10-11T03:00:04.429Z,1006.61
2022-10-11T03:01:04.341Z,1006.63
2022-10-11T03:02:04.388Z,1006.67
2022-10-11T03:03:04.374Z,1006.65
2022-10-11T03:04:05.317Z,1006.70
2022-10-11T03:05:04.319Z,1006.63
2022-10-11T03:06:04.672Z,1006.69
2022-10-11T03:07:04.339Z,1006.73
2022-10-11T03:08:04.311Z,1006.76
2022-10-11T03:09:04.282Z,1006.80
2022-10-11T03:10:05.080Z,1006.83
2022-10-11T03:11:04.286Z,1006.85
2022-10-11T03:12:04.292Z,1006.91
2022-10-11T03:13:04.306Z,1006.84
2022-10-11T03:14:04.284Z,1006.85
2022-10-11T03:15:04.251Z,1006.93
2022-10-11T03:16:04.238Z,1006.89
2022-10-11T03:17:31.047Z,1006.90
2022-10-11T03:18:06.255Z,1006.97
2022-10-11T03:19:04.236Z,1006.92
2022-10-11T03:20:04.292Z,1006.96
2022-10-11T03:21:04.208Z,1006.96
2022-10-11T03:22:04.231Z,1006.92
2022-10-11T03:23:04.220Z,1006.99
2022-10-11T03:24:04.207Z,1006.98
2022-10-11T03:25:04.929Z,1007.01
2022-10-11T03:26:05.382Z,1007.04
2022-10-11T03:27:04.176Z,1007.01
2022-10-11T03:28:04.194Z,1007.00
2022-10-11T03:29:04.197Z,1007.00
2022-10-11T03:30:04.201Z,1006.95
2022-10-11T03:31:04.158Z,1006.99
2022-10-11T03:32:04.170Z,1006.99
2022-10-11T03:33:04.297Z,1007.02
2022-10-11T03:34:04.166Z,1007.04
2022-10-11T03:35:04.338Z,1007.02
2022-10-11T03:36:04.451Z,1007.06
2022-10-11T03:37:04.125Z,1007.05
2022-10-11T03:38:04.125Z,1007.10
2022-10-11T03:39:04.127Z,1007.05
2022-10-11T03:40:04.114Z,1007.07
2022-10-11T03:41:04.122Z,1007.11
2022-10-11T03:42:04.090Z,1007.08
2022-10-11T03:43:04.106Z,1007.12
2022-10-11T03:44:04.065Z,1007.12
2022-10-11T03:45:04.103Z,1007.08
2022-10-11T03:46:04.463Z,1007.11
2022-10-11T03:47:04.072Z,1007.10
2022-10-11T03:48:04.075Z,1007.15
2022-10-11T03:49:04.042Z,1007.13
2022-10-11T03:50:04.059Z,1007.14
2022-10-11T03:51:04.027Z,1007.11
2022-10-11T03:52:04.032Z,1007.07
2022-10-11T03:53:04.100Z,1007.09
2022-10-11T03:54:04.022Z,1007.12
2022-10-11T03:55:04.019Z,1007.12
2022-10-11T03:56:08.271Z,1007.14
2022-10-11T03:57:04.999Z,1007.16
2022-10-11T03:58:03.989Z,1007.13
2022-10-11T03:59:03.990Z,1007.19
2022-10-11T04:00:03.983Z,1007.18
2022-10-11T04:01:04.009Z,1007.19
2022-10-11T04:02:04.029Z,1007.22
2022-10-11T04:03:03.981Z,1007.22
2022-10-11T04:04:03.944Z,1007.25
2022-10-11T04:05:03.961Z,1007.20
2022-10-11T04:06:04.391Z,1007.26
2022-10-11T04:07:03.935Z,1007.26
2022-10-11T04:08:06.331Z,1007.35
2022-10-11T04:09:04.926Z,1007.29
2022-10-11T04:10:03.929Z,1007.30
2022-10-11T04:11:03.913Z,1007.26
2022-10-11T04:12:03.935Z,1007.36
2022-10-11T04:13:03.947Z,1007.32
2022-10-11T04:14:03.927Z,1007.35
2022-10-11T04:15:03.886Z,1007.35
2022-10-11T04:16:04.874Z,1007.38
2022-10-11T04:17:03.879Z,1007.41
2022-10-11T04:18:03.894Z,1007.39
2022-10-11T04:19:04.003Z,1007.38
2022-10-11T04:20:03.882Z,1007.41
2022-10-11T04:21:04.018Z,1007.38
2022-10-11T04:22:03.854Z,1007.42
2022-10-11T04:23:03.862Z,1007.47
2022-10-11T04:24:03.898Z,1007.42
2022-10-11T04:25:03.829Z,1007.41
2022-10-11T04:26:04.118Z,1007.40
2022-10-11T04:27:03.827Z,1007.46
2022-10-11T04:28:03.830Z,1007.43
2022-10-11T04:29:03.814Z,1007.45
2022-10-11T04:30:03.807Z,1007.44
2022-10-11T04:31:03.832Z,1007.42
2022-10-11T04:32:03.815Z,1007.47
2022-10-11T04:33:03.799Z,1007.46
2022-10-11T04:34:03.792Z,1007.43
2022-10-11T04:35:04.842Z,1007.45
2022-10-11T04:36:05.081Z,1007.46
2022-10-11T04:37:03.816Z,1007.50
2022-10-11T04:38:03.804Z,1007.45
2022-10-11T04:39:03.750Z,1007.48
2022-10-11T04:40:03.752Z,1007.54
2022-10-11T04:41:03.771Z,1007.44
2022-10-11T04:42:03.749Z,1007.51
2022-10-11T04:43:03.807Z,1007.47
2022-10-11T04:44:03.731Z,1007.51
2022-10-11T04:45:03.749Z,1007.57
2022-10-11T04:46:03.951Z,1007.54
2022-10-11T04:47:03.708Z,1007.55
2022-10-11T04:48:03.693Z,1007.62
2022-10-11T04:49:03.680Z,1007.60
2022-10-11T04:50:03.735Z,1007.67
2022-10-11T04:51:03.717Z,1007.66
2022-10-11T04:52:03.702Z,1007.62
2022-10-11T04:53:03.731Z,1007.66
2022-10-11T04:54:03.714Z,1007.69
2022-10-11T04:55:03.659Z,1007.66
2022-10-11T04:56:04.197Z,1007.67
2022-10-11T04:57:03.650Z,1007.69
2022-10-11T04:58:03.688Z,1007.75
2022-10-11T04:59:03.631Z,1007.70
2022-10-11T05:00:03.716Z,1007.73
2022-10-11T05:01:03.634Z,1007.65
2022-10-11T05:02:03.685Z,1007.72
2022-10-11T05:03:04.219Z,1007.77
2022-10-11T05:04:03.607Z,1007.75
2022-10-11T05:05:35.607Z,1007.78
2022-10-11T05:06:05.955Z,1007.81
2022-10-11T05:07:04.588Z,1007.82
2022-10-11T05:08:03.575Z,1007.78
2022-10-11T05:09:03.609Z,1007.76
2022-10-11T05:10:03.557Z,1007.81
2022-10-11T05:11:04.591Z,1007.84
2022-10-11T05:12:03.605Z,1007.85
2022-10-11T05:13:03.544Z,1007.87
2022-10-11T05:14:03.547Z,1007.90
2022-10-11T05:15:03.594Z,1007.84
2022-10-11T05:16:07.055Z,1007.86
2022-10-11T05:17:05.559Z,1007.90
2022-10-11T05:18:03.520Z,1007.94
2022-10-11T05:19:03.522Z,1007.95
2022-10-11T05:20:03.528Z,1007.91
2022-10-11T05:21:03.507Z,1007.93
2022-10-11T05:22:03.556Z,1007.93
2022-10-11T05:23:03.515Z,1007.94
2022-10-11T05:24:03.496Z,1007.91
2022-10-11T05:25:03.500Z,1007.91
2022-10-11T05:26:03.945Z,1007.95
2022-10-11T05:27:03.756Z,1007.89
2022-10-11T05:28:03.469Z,1008.01
2022-10-11T05:29:03.593Z,1007.95
2022-10-11T05:30:03.628Z,1007.98
2022-10-11T05:31:03.485Z,1007.99
2022-10-11T05:32:03.447Z,1008.00
2022-10-11T05:33:03.489Z,1007.99
2022-10-11T05:34:03.454Z,1008.00
2022-10-11T05:35:03.423Z,1008.04
2022-10-11T05:36:03.868Z,1007.95
2022-10-11T05:37:03.401Z,1008.06
2022-10-11T05:38:03.400Z,1008.07
2022-10-11T05:39:03.397Z,1008.03
2022-10-11T05:40:03.400Z,1008.05
2022-10-11T05:41:03.380Z,1008.05
2022-10-11T05:42:07.666Z,1008.09
2022-10-11T05:43:04.377Z,1008.11
2022-10-11T05:44:04.362Z,1008.10
2022-10-11T05:45:03.380Z,1008.20
2022-10-11T05:46:03.654Z,1008.22
2022-10-11T05:47:03.341Z,1008.25
2022-10-11T05:48:03.348Z,1008.23
2022-10-11T05:49:03.341Z,1008.18
2022-10-11T05:50:03.333Z,1008.26
2022-10-11T05:51:03.346Z,1008.26
2022-10-11T05:52:03.303Z,1008.25
2022-10-11T05:53:03.312Z,1008.38
2022-10-11T05:54:03.313Z,1008.32
2022-10-11T05:55:03.300Z,1008.33
2022-10-11T05:56:03.794Z,1008.28
2022-10-11T05:57:03.290Z,1008.29
2022-10-11T05:58:03.281Z,1008.39
2022-10-11T05:59:04.272Z,1008.37
2022-10-11T06:00:03.281Z,1008.39
2022-10-11T06:01:03.288Z,1008.39
2022-10-11T06:02:03.284Z,1008.40
2022-10-11T06:03:03.292Z,1008.44
2022-10-11T06:04:03.249Z,1008.43
2022-10-11T06:05:03.244Z,1008.41
2022-10-11T06:06:03.348Z,1008.46
2022-10-11T06:07:03.248Z,1008.42
2022-10-11T06:08:03.226Z,1008.48
2022-10-11T06:09:03.200Z,1008.51
2022-10-11T06:10:03.216Z,1008.50
2022-10-11T06:11:03.208Z,1008.52
2022-10-11T06:12:03.209Z,1008.55
2022-10-11T06:13:03.268Z,1008.58
2022-10-11T06:14:03.169Z,1008.61
2022-10-11T06:15:03.213Z,1008.60
2022-10-11T06:16:03.690Z,1008.58
2022-10-11T06:17:03.165Z,1008.61
2022-10-11T06:18:03.165Z,1008.58
2022-10-11T06:19:03.148Z,1008.64
2022-10-11T06:20:03.136Z,1008.66
2022-10-11T06:21:03.144Z,1008.70
2022-10-11T06:22:03.124Z,1008.71
2022-10-11T06:23:03.164Z,1008.69
2022-10-11T06:24:03.144Z,1008.67
2022-10-11T06:25:03.104Z,1008.68
2022-10-11T06:26:03.526Z,1008.66
2022-10-11T06:27:03.084Z,1008.71
2022-10-11T06:28:03.172Z,1008.80
2022-10-11T06:29:03.099Z,1008.68
2022-10-11T06:30:03.086Z,1008.71
2022-10-11T06:31:03.083Z,1008.73
2022-10-11T06:32:03.105Z,1008.69
2022-10-11T06:33:04.933Z,1008.64
2022-10-11T06:34:04.081Z,1008.70
2022-10-11T06:35:03.045Z,1008.70
2022-10-11T06:36:03.369Z,1008.72
2022-10-11T06:37:03.041Z,1008.73
2022-10-11T06:38:03.034Z,1008.77
2022-10-11T06:39:03.028Z,1008.78
2022-10-11T06:40:03.042Z,1008.77
2022-10-11T06:41:03.006Z,1008.74
2022-10-11T06:42:03.018Z,1008.81
2022-10-11T06:43:03.026Z,1008.80
2022-10-11T06:44:03.013Z,1008.85
2022-10-11T06:45:02.991Z,1008.86
2022-10-11T06:46:03.365Z,1008.84
2022-10-11T06:47:03.012Z,1008.91
2022-10-11T06:48:02.986Z,1008.93
2022-10-11T06:49:02.951Z,1008.94
2022-10-11T06:50:02.960Z,1008.90
2022-10-11T06:51:02.944Z,1008.92
2022-10-11T06:52:02.947Z,1008.90
2022-10-11T06:53:02.927Z,1008.87
2022-10-11T06:54:02.954Z,1008.89
2022-10-11T06:55:02.919Z,1008.92
2022-10-11T06:56:03.284Z,1009.01
2022-10-11T06:57:02.918Z,1008.95
2022-10-11T06:58:02.899Z,1009.01
2022-10-11T06:59:02.905Z,1009.03
2022-10-11T07:00:02.879Z,1009.01
2022-10-11T07:01:03.183Z,1009.00
2022-10-11T07:02:02.889Z,1008.98
2022-10-11T07:03:02.874Z,1009.00
2022-10-11T07:04:02.885Z,1008.97
2022-10-11T07:05:02.853Z,1009.00
2022-10-11T07:06:03.068Z,1009.03
2022-10-11T07:07:02.847Z,1009.09
2022-10-11T07:08:02.843Z,1009.14
2022-10-11T07:09:02.846Z,1009.08
2022-10-11T07:10:02.820Z,1009.11
2022-10-11T07:11:02.808Z,1009.17
2022-10-11T07:12:02.808Z,1009.11
2022-10-11T07:13:02.820Z,1009.21
2022-10-11T07:14:02.824Z,1009.23
2022-10-11T07:15:02.825Z,1009.23
2022-10-11T07:16:03.278Z,1009.28
2022-10-11T07:17:02.781Z,1009.28
2022-10-11T07:18:02.781Z,1009.30
2022-10-11T07:19:02.803Z,1009.36
2022-10-11T07:20:02.876Z,1009.37
2022-10-11T07:21:02.761Z,1009.31
2022-10-11T07:22:02.745Z,1009.35
2022-10-11T07:23:02.828Z,1009.31
2022-10-11T07:24:02.740Z,1009.35
2022-10-11T07:25:02.776Z,1009.36
2022-10-11T07:26:03.114Z,1009.39
2022-10-11T07:27:02.728Z,1009.41
2022-10-11T07:28:02.711Z,1009.41
2022-10-11T07:29:02.727Z,1009.40
2022-10-11T07:30:03.664Z,1009.45
2022-10-11T07:31:02.708Z,1009.45
2022-10-11T07:32:02.721Z,1009.43
2022-10-11T07:33:02.740Z,1009.50
2022-10-11T07:34:02.703Z,1009.48
2022-10-11T07:35:02.680Z,1009.47
2022-10-11T07:36:03.041Z,1009.50
2022-10-11T07:37:02.668Z,1009.48
2022-10-11T07:38:02.683Z,1009.45
2022-10-11T07:39:02.672Z,1009.46
2022-10-11T07:40:02.659Z,1009.51
2022-10-11T07:41:02.655Z,1009.50
2022-10-11T07:42:02.631Z,1009.46
2022-10-11T07:43:02.664Z,1009.54
2022-10-11T07:44:02.649Z,1009.54
2022-10-11T07:45:02.628Z,1009.54
2022-10-11T07:46:02.968Z,1009.48
2022-10-11T07:47:02.620Z,1009.53
2022-10-11T07:48:02.591Z,1009.52
2022-10-11T07:49:02.648Z,1009.52
2022-10-11T07:50:02.698Z,1009.58
2022-10-11T07:51:02.572Z,1009.60
2022-10-11T07:52:02.577Z,1009.70
2022-10-11T07:53:02.668Z,1009.54
2022-10-11T07:54:07.043Z,1009.54
2022-10-11T07:55:03.549Z,1009.58
2022-10-11T07:56:03.903Z,1009.64
2022-10-11T07:57:02.531Z,1009.73
2022-10-11T07:58:02.523Z,1009.72
2022-10-11T07:59:02.551Z,1009.65
2022-10-11T08:00:02.559Z,1009.62
2022-10-11T08:01:02.546Z,1009.74
2022-10-11T08:02:02.656Z,1009.76
2022-10-11T08:03:02.499Z,1009.80
2022-10-11T08:04:02.492Z,1009.71
2022-10-11T08:05:02.517Z,1009.74
2022-10-11T08:06:02.870Z,1009.76
2022-10-11T08:07:02.494Z,1009.78
2022-10-11T08:08:02.478Z,1009.74
2022-10-11T08:09:02.470Z,1009.70
2022-10-11T08:10:02.508Z,1009.80
2022-10-11T08:11:02.451Z,1009.73
2022-10-11T08:12:02.635Z,1009.77
2022-10-11T08:13:04.524Z,1009.80
2022-10-11T08:14:03.423Z,1009.80
2022-10-11T08:15:02.454Z,1009.81
2022-10-11T08:16:02.582Z,1009.79
2022-10-11T08:17:02.418Z,1009.73
2022-10-11T08:18:02.417Z,1009.79
2022-10-11T08:19:02.451Z,1009.74
2022-10-11T08:20:02.390Z,1009.77
2022-10-11T08:21:02.415Z,1009.75
2022-10-11T08:22:02.380Z,1009.77
2022-10-11T08:23:02.374Z,1009.69
2022-10-11T08:24:02.383Z,1009.79
2022-10-11T08:25:02.390Z,1009.83
2022-10-11T08:26:02.678Z,1009.79
2022-10-11T08:27:02.360Z,1009.84
2022-10-11T08:28:02.349Z,1009.75
2022-10-11T08:29:02.470Z,1009.73
2022-10-11T08:30:02.337Z,1009.47
2022-10-11T08:31:02.364Z,1009.47
2022-10-11T08:32:02.353Z,1009.47
2022-10-11T08:33:07.576Z,1009.42
2022-10-11T08:34:04.302Z,1009.49
2022-10-11T08:35:02.325Z,1009.47
2022-10-11T08:36:02.635Z,1009.37
2022-10-11T08:37:02.324Z,1009.47
2022-10-11T08:38:02.284Z,1009.80
2022-10-11T08:39:02.292Z,1009.64
2022-10-11T08:40:02.280Z,1009.51
2022-10-11T08:41:02.300Z,1009.43
2022-10-11T08:42:02.301Z,1009.49
2022-10-11T08:43:02.248Z,1009.50
2022-10-11T08:44:02.284Z,1009.51
2022-10-11T08:45:11.522Z,1009.48
2022-10-11T08:46:04.697Z,1009.47
2022-10-11T08:47:02.231Z,1009.42
2022-10-11T08:48:02.259Z,1009.42
2022-10-11T08:49:02.221Z,1009.45
2022-10-11T08:50:02.219Z,1009.40
2022-10-11T08:51:02.207Z,1009.44
2022-10-11T08:52:02.251Z,1009.51
2022-10-11T08:53:02.215Z,1009.49
2022-10-11T08:54:07.140Z,1009.52
2022-10-11T08:55:04.178Z,1009.54
2022-10-11T08:56:02.412Z,1009.47
2022-10-11T08:57:02.176Z,1009.41
2022-10-11T08:58:02.223Z,1009.47
2022-10-11T08:59:02.164Z,1009.43
2022-10-11T09:00:02.160Z,1009.41
2022-10-11T09:01:02.215Z,1009.39
2022-10-11T09:02:02.221Z,1009.49
2022-10-11T09:03:10.065Z,1009.46
2022-10-11T09:04:04.120Z,1009.46
2022-10-11T09:05:02.233Z,1009.43
2022-10-11T09:06:02.395Z,1009.50
2022-10-11T09:07:04.880Z,1009.49
2022-10-11T09:08:03.224Z,1009.49
2022-10-11T09:09:02.096Z,1009.43
2022-10-11T09:10:02.104Z,1009.51
2022-10-11T09:11:02.087Z,1009.50
2022-10-11T09:12:02.087Z,1009.53
2022-10-11T09:13:02.141Z,1009.48
2022-10-11T09:14:02.075Z,1009.43
2022-10-11T09:15:02.083Z,1009.49
2022-10-11T09:16:02.312Z,1009.56
2022-10-11T09:17:02.052Z,1009.48
2022-10-11T09:18:02.052Z,1009.46
2022-10-11T09:19:02.036Z,1009.46
2022-10-11T09:20:02.030Z,1009.51
2022-10-11T09:21:02.021Z,1009.51
2022-10-11T09:22:02.026Z,1009.51
2022-10-11T09:23:02.026Z,1009.52
2022-10-11T09:24:02.029Z,1009.42
2022-10-11T09:25:01.994Z,1009.54
2022-10-11T09:26:02.202Z,1009.53
2022-10-11T09:27:01.994Z,1009.54
2022-10-11T09:28:03.473Z,1009.49
2022-10-11T09:29:03.027Z,1009.51
2022-10-11T09:30:01.984Z,1009.46
2022-10-11T09:31:01.989Z,1009.55
2022-10-11T09:32:01.949Z,1009.52
2022-10-11T09:33:01.942Z,1009.54
2022-10-11T09:34:01.967Z,1009.57
2022-10-11T09:35:01.941Z,1009.54
2022-10-11T09:36:02.069Z,1009.55
2022-10-11T09:37:01.941Z,1009.52
2022-10-11T09:38:01.924Z,1009.55
2022-10-11T09:39:06.324Z,1009.58
2022-10-11T09:40:02.917Z,1009.56
2022-10-11T09:41:01.945Z,1009.53
2022-10-11T09:42:01.929Z,1009.52
2022-10-11T09:43:01.928Z,1009.58
2022-10-11T09:44:01.910Z,1009.60
2022-10-11T09:45:01.881Z,1009.56
2022-10-11T09:46:02.174Z,1009.59
2022-10-11T09:47:01.877Z,1009.58
2022-10-11T09:48:01.880Z,1009.67
2022-10-11T09:49:01.897Z,1009.67
2022-10-11T09:50:01.852Z,1009.59
2022-10-11T09:51:01.833Z,1009.64
2022-10-11T09:52:01.866Z,1009.59
2022-10-11T09:53:01.952Z,1009.65
2022-10-11T09:54:01.852Z,1009.63
2022-10-11T09:55:01.831Z,1009.70
2022-10-11T09:56:02.038Z,1009.58
2022-10-11T09:57:01.824Z,1009.60
2022-10-11T09:58:01.803Z,1009.60
2022-10-11T09:59:01.850Z,1009.58
2022-10-11T10:00:01.852Z,1009.58
2022-10-11T10:01:07.318Z,1009.60
2022-10-11T10:02:03.851Z,1009.60
2022-10-11T10:03:01.767Z,1009.62
2022-10-11T10:04:01.774Z,1009.58
2022-10-11T10:05:01.774Z,1009.65
2022-10-11T10:06:01.882Z,1009.72
2022-10-11T10:07:01.753Z,1009.65
2022-10-11T10:08:04.706Z,1009.70
2022-10-11T10:09:02.734Z,1009.73
2022-10-11T10:10:01.748Z,1009.71
2022-10-11T10:11:01.769Z,1009.74
2022-10-11T10:12:01.716Z,1009.71
2022-10-11T10:13:01.749Z,1009.77
2022-10-11T10:14:01.751Z,1009.92
2022-10-11T10:15:01.704Z,1009.73
2022-10-11T10:16:01.809Z,1009.67
2022-10-11T10:17:01.686Z,1009.68
2022-10-11T10:18:01.692Z,1009.67
2022-10-11T10:19:01.705Z,1009.58
2022-10-11T10:20:01.663Z,1009.94
2022-10-11T10:21:01.693Z,1009.92
2022-10-11T10:22:01.668Z,1009.96
2022-10-11T10:23:01.687Z,1009.98
2022-10-11T10:24:01.636Z,1009.96
2022-10-11T10:25:01.644Z,1009.98
2022-10-11T10:26:01.637Z,1009.82
2022-10-11T10:27:01.609Z,1009.63
2022-10-11T10:28:01.618Z,1009.74
2022-10-11T10:29:02.595Z,1010.00
2022-10-11T10:30:01.609Z,1010.06
2022-10-11T10:31:01.600Z,1010.02
2022-10-11T10:32:13.900Z,1009.93
2022-10-11T10:33:03.577Z,1009.97
2022-10-11T10:34:01.594Z,1009.82
2022-10-11T10:35:01.587Z,1009.92
2022-10-11T10:36:01.662Z,1009.93
2022-10-11T10:37:01.554Z,1009.96
2022-10-11T10:38:01.556Z,1009.99
2022-10-11T10:39:01.560Z,1009.94
2022-10-11T10:40:01.599Z,1009.95
2022-10-11T10:41:01.527Z,1009.93
2022-10-11T10:42:01.560Z,1009.94
2022-10-11T10:43:01.514Z,1009.89
2022-10-11T10:44:01.512Z,1009.87
2022-10-11T10:45:01.533Z,1009.81
2022-10-11T10:46:01.563Z,1009.72
2022-10-11T10:47:01.587Z,1009.68
2022-10-11T10:48:01.488Z,1009.69
2022-10-11T10:49:34.402Z,1009.71
2022-10-11T10:50:12.631Z,1009.76
2022-10-11T10:51:01.513Z,1009.77
2022-10-11T10:52:01.456Z,1009.75
2022-10-11T10:53:01.454Z,1009.71
2022-10-11T10:54:01.449Z,1009.76
2022-10-11T10:55:01.465Z,1009.85
2022-10-11T10:56:01.481Z,1009.76
2022-10-11T10:57:01.447Z,1009.79
2022-10-11T10:58:01.471Z,1009.74
2022-10-11T10:59:01.423Z,1009.72
2022-10-11T11:00:01.412Z,1009.72
2022-10-11T11:01:01.414Z,1009.67
2022-10-11T11:02:15.906Z,1009.63
2022-10-11T11:03:03.470Z,1009.65
2022-10-11T11:04:01.417Z,1009.65
2022-10-11T11:05:01.382Z,1009.52
2022-10-11T11:06:01.471Z,1009.59
2022-10-11T11:07:01.420Z,1009.57
2022-10-11T11:08:01.375Z,1009.59
2022-10-11T11:09:01.381Z,1009.58
2022-10-11T11:10:01.359Z,1009.58
2022-10-11T11:11:01.367Z,1009.53
2022-10-11T11:12:01.363Z,1009.52
2022-10-11T11:13:01.359Z,1009.44
2022-10-11T11:14:01.355Z,1009.45
2022-10-11T11:15:01.383Z,1009.45
2022-10-11T11:16:01.323Z,1009.45
2022-10-11T11:17:01.323Z,1009.43
2022-10-11T11:18:01.368Z,1009.40
2022-10-11T11:19:01.322Z,1009.41
2022-10-11T11:20:01.298Z,1009.43
2022-10-11T11:21:01.290Z,1009.37
2022-10-11T11:22:02.202Z,1009.45
2022-10-11T11:23:01.310Z,1009.44
2022-10-11T11:24:01.296Z,1009.36
2022-10-11T11:25:01.271Z,1009.33
2022-10-11T11:26:01.339Z,1009.37
2022-10-11T11:27:01.262Z,1009.40
2022-10-11T11:28:01.255Z,1009.41
2022-10-11T11:29:01.344Z,1009.39
2022-10-11T11:30:01.246Z,1009.48
2022-10-11T11:31:01.232Z,1009.41
2022-10-11T11:32:01.228Z,1009.42
2022-10-11T11:33:01.239Z,1009.35
2022-10-11T11:34:01.267Z,1009.36
2022-10-11T11:35:01.218Z,1009.36
2022-10-11T11:36:01.199Z,1009.35
2022-10-11T11:37:01.191Z,1009.34
2022-10-11T11:38:06.056Z,1009.23
2022-10-11T11:39:03.227Z,1009.32
2022-10-11T11:40:01.194Z,1009.28
2022-10-11T11:41:01.171Z,1009.34
2022-10-11T11:42:01.176Z,1009.30
2022-10-11T11:43:01.150Z,1009.33
2022-10-11T11:44:01.179Z,1009.24
2022-10-11T11:45:01.139Z,1009.19
2022-10-11T11:46:01.131Z,1009.20
2022-10-11T11:47:01.127Z,1009.07
2022-10-11T11:48:01.170Z,1009.17
2022-10-11T11:49:01.106Z,1009.14
2022-10-11T11:50:01.131Z,1009.17
2022-10-11T11:51:01.102Z,1009.22
2022-10-11T11:52:01.102Z,1009.17
2022-10-11T11:53:01.074Z,1009.04
2022-10-11T11:54:01.098Z,1009.18
2022-10-11T11:55:03.967Z,1009.15
2022-10-11T11:56:02.064Z,1009.19
2022-10-11T11:57:01.635Z,1009.14
2022-10-11T11:58:06.038Z,1009.09
2022-10-11T11:59:03.060Z,1009.01
2022-10-11T12:00:01.038Z,1009.00
2022-10-11T12:01:01.042Z,1008.97
2022-10-11T12:02:01.064Z,1008.95
2022-10-11T12:03:01.027Z,1009.00
2022-10-11T12:04:01.014Z,1008.96
2022-10-11T12:05:00.995Z,1009.00